Time;durP1;ratioP1;P1;durP2;ratioP2;P2;SDS_P1;SDS_P2;PMS_P1;PMS_P2;Temp;Humidity;BMP_temperature;BMP_pressure;BME280_temperature;BME280_humidity;BME280_pressure;Samples;Min_cycle;Max_cycle;Signal;HPM_P1;HPM_P2
2022/07/05 00:00:50;;;;;;;1.27;0.70;;;;;;;;;;5070158;28;20215;-62
2022/07/05 00:03:17;;;;;;;1.45;0.75;;;;;;;;;;5070197;28;20663;-62
2022/07/05 00:05:44;;;;;;;0.77;0.77;;;;;;;;;;5070016;28;20574;-62
2022/07/05 00:08:11;;;;;;;0.93;0.70;;;;;;;;;;5069857;28;20207;-62
2022/07/05 00:10:38;;;;;;;1.90;0.63;;;;;;;;;;5069637;28;20654;-62
2022/07/05 00:13:06;;;;;;;1.92;0.57;;;;;;;;;;5069355;28;20272;-62
2022/07/05 00:15:34;;;;;;;0.60;0.60;;;;;;;;;;5070073;28;20210;-62
2022/07/05 00:18:01;;;;;;;0.70;0.70;;;;;;;;;;5069943;28;20202;-62
2022/07/05 00:20:28;;;;;;;1.13;1.00;;;;;;;;;;5069393;28;20621;-61
2022/07/05 00:22:55;;;;;;;0.80;0.80;;;;;;;;;;5069613;28;20241;-62
2022/07/05 00:25:22;;;;;;;0.70;0.70;;;;;;;;;;5069036;28;20222;-62
2022/07/05 00:27:49;;;;;;;2.25;0.65;;;;;;;;;;5069285;28;20292;-62
2022/07/05 00:30:17;;;;;;;0.60;0.60;;;;;;;;;;5069233;28;20211;-62
2022/07/05 00:32:45;;;;;;;1.20;0.80;;;;;;;;;;5069266;28;20230;-62
2022/07/05 00:35:12;;;;;;;0.65;0.65;;;;;;;;;;5049463;28;20670;-62
2022/07/05 00:37:39;;;;;;;0.82;0.82;;;;;;;;;;5049420;28;20208;-62
2022/07/05 00:40:09;;;;;;;0.73;0.73;;;;;;;;;;5067723;28;20261;-62
2022/07/05 00:42:36;;;;;;;1.33;0.88;;;;;;;;;;5068848;28;20207;-62
2022/07/05 00:45:04;;;;;;;1.38;0.60;;;;;;;;;;5068326;28;20250;-62
2022/07/05 00:47:31;;;;;;;0.60;0.60;;;;;;;;;;5068873;28;20207;-62
2022/07/05 00:49:59;;;;;;;0.70;0.70;;;;;;;;;;5068355;28;20612;-62
2022/07/05 00:52:26;;;;;;;0.70;0.70;;;;;;;;;;5067980;28;20211;-62
2022/07/05 00:54:54;;;;;;;1.45;0.82;;;;;;;;;;5068262;28;20256;-62
2022/07/05 00:57:22;;;;;;;0.55;0.55;;;;;;;;;;5068503;28;20238;-62
2022/07/05 00:59:49;;;;;;;0.85;0.85;;;;;;;;;;5068216;28;20203;-63
2022/07/05 01:02:16;;;;;;;2.63;0.60;;;;;;;;;;5068164;28;20264;-62
2022/07/05 01:04:43;;;;;;;0.80;0.73;;;;;;;;;;5068143;28;20198;-62
2022/07/05 01:07:11;;;;;;;1.58;0.80;;;;;;;;;;5067987;28;20668;-62
2022/07/05 01:09:39;;;;;;;0.90;0.90;;;;;;;;;;5067678;28;20194;-62
2022/07/05 01:12:06;;;;;;;1.33;0.70;;;;;;;;;;5067578;28;20267;-62
2022/07/05 01:14:34;;;;;;;2.85;0.70;;;;;;;;;;5068631;28;20231;-62
2022/07/05 01:17:01;;;;;;;1.45;0.60;;;;;;;;;;5068342;28;20778;-62
2022/07/05 01:19:28;;;;;;;0.80;0.80;;;;;;;;;;5067694;28;20214;-62
2022/07/05 01:21:55;;;;;;;1.40;0.80;;;;;;;;;;5068379;28;20198;-62
2022/07/05 01:24:24;;;;;;;0.55;0.55;;;;;;;;;;5066212;28;20692;-62
2022/07/05 01:26:51;;;;;;;0.65;0.65;;;;;;;;;;5067937;28;20211;-61
2022/07/05 01:29:19;;;;;;;0.80;0.80;;;;;;;;;;5067587;28;20298;-62
2022/07/05 01:31:46;;;;;;;1.75;0.80;;;;;;;;;;5068178;28;20211;-61
2022/07/05 01:34:13;;;;;;;0.80;0.80;;;;;;;;;;5067844;28;20726;-62
2022/07/05 01:36:40;;;;;;;0.85;0.73;;;;;;;;;;5068328;28;20215;-62
2022/07/05 01:39:08;;;;;;;0.63;0.63;;;;;;;;;;5067517;28;20256;-62
2022/07/05 01:41:36;;;;;;;0.88;0.88;;;;;;;;;;5067988;28;20203;-65
2022/07/05 01:44:04;;;;;;;1.02;0.95;;;;;;;;;;5067932;28;20282;-62
2022/07/05 01:46:33;;;;;;;1.45;0.80;;;;;;;;;;5067979;28;20200;-62
2022/07/05 01:49:02;;;;;;;1.55;0.80;;;;;;;;;;5067768;28;20203;-62
2022/07/05 01:54:16;;;;;;;1.05;1.00;;;;;;;;;;5055465;28;20321;-62
2022/07/05 01:56:44;;;;;;;0.80;0.80;;;;;;;;;;5068216;28;20207;-62
2022/07/05 01:59:11;;;;;;;0.82;0.82;;;;;;;;;;5060649;28;20669;-62
2022/07/05 02:01:39;;;;;;;0.77;0.77;;;;;;;;;;5063207;28;20214;-62
2022/07/05 02:04:07;;;;;;;0.77;0.77;;;;;;;;;;5067470;28;20207;-62
2022/07/05 02:06:34;;;;;;;1.30;0.98;;;;;;;;;;5067647;28;20203;-62
2022/07/05 02:09:01;;;;;;;0.65;0.65;;;;;;;;;;5067063;28;20206;-62
2022/07/05 02:11:28;;;;;;;0.90;0.90;;;;;;;;;;5067589;28;20203;-62
2022/07/05 02:13:56;;;;;;;2.90;0.90;;;;;;;;;;5067411;28;20231;-62
2022/07/05 02:16:24;;;;;;;1.20;1.20;;;;;;;;;;5068012;28;20588;-62
2022/07/05 02:18:51;;;;;;;0.80;0.80;;;;;;;;;;5067184;28;20214;-62
2022/07/05 02:21:18;;;;;;;0.80;0.80;;;;;;;;;;5067457;28;20257;-62
2022/07/05 02:23:45;;;;;;;0.90;0.90;;;;;;;;;;5069913;28;20879;-62
2022/07/05 02:26:13;;;;;;;6.32;0.80;;;;;;;;;;5070867;28;20218;-62
2022/07/05 02:28:40;;;;;;;0.90;0.90;;;;;;;;;;5071070;28;20203;-62
2022/07/05 02:31:09;;;;;;;0.80;0.80;;;;;;;;;;5071472;28;20222;-62
2022/07/05 02:33:36;;;;;;;0.95;0.95;;;;;;;;;;5070715;28;20223;-62
2022/07/05 02:36:07;;;;;;;1.23;0.88;;;;;;;;;;5071192;28;20260;-61
2022/07/05 02:38:34;;;;;;;0.95;0.95;;;;;;;;;;5071167;28;20230;-61
2022/07/05 02:41:01;;;;;;;1.00;1.00;;;;;;;;;;5069510;28;20199;-63
2022/07/05 02:43:28;;;;;;;0.63;0.63;;;;;;;;;;5071149;28;20203;-63
2022/07/05 02:45:55;;;;;;;1.25;0.90;;;;;;;;;;5070893;28;20325;-63
2022/07/05 02:48:23;;;;;;;1.05;1.05;;;;;;;;;;5071080;28;20252;-63
2022/07/05 02:50:50;;;;;;;0.90;0.90;;;;;;;;;;5070087;28;20207;-63
2022/07/05 02:53:17;;;;;;;0.95;0.95;;;;;;;;;;5070678;28;20211;-64
2022/07/05 02:55:44;;;;;;;1.10;1.00;;;;;;;;;;5071016;28;20222;-63
2022/07/05 02:58:11;;;;;;;0.90;0.90;;;;;;;;;;5070400;28;20203;-64
2022/07/05 03:00:38;;;;;;;0.80;0.80;;;;;;;;;;5069736;28;20203;-64
2022/07/05 03:03:06;;;;;;;1.38;1.00;;;;;;;;;;5069561;28;20304;-64
2022/07/05 03:05:34;;;;;;;0.90;0.90;;;;;;;;;;5070645;28;20207;-64
2022/07/05 03:08:01;;;;;;;1.27;0.90;;;;;;;;;;5069477;28;20207;-63
2022/07/05 03:10:28;;;;;;;0.90;0.90;;;;;;;;;;5067766;28;20203;-64
2022/07/05 03:12:55;;;;;;;1.00;1.00;;;;;;;;;;5067601;28;20222;-63
2022/07/05 03:15:22;;;;;;;1.02;0.98;;;;;;;;;;5067726;28;20309;-63
2022/07/05 03:17:49;;;;;;;0.85;0.85;;;;;;;;;;5067467;28;20207;-63
2022/07/05 03:20:16;;;;;;;1.10;0.90;;;;;;;;;;5068307;28;20265;-64
2022/07/05 03:22:45;;;;;;;2.58;0.90;;;;;;;;;;5068721;28;20207;-65
2022/07/05 03:25:12;;;;;;;1.10;1.00;;;;;;;;;;5067382;28;20211;-63
2022/07/05 03:27:39;;;;;;;1.52;1.42;;;;;;;;;;5068030;28;20268;-64
2022/07/05 03:30:06;;;;;;;1.10;0.80;;;;;;;;;;5067407;28;20199;-64
2022/07/05 03:32:33;;;;;;;1.75;1.00;;;;;;;;;;5067980;28;20211;-64
2022/07/05 03:35:00;;;;;;;0.80;0.80;;;;;;;;;;5066052;28;20223;-62
2022/07/05 03:37:28;;;;;;;1.10;1.10;;;;;;;;;;5067012;28;20206;-64
2022/07/05 03:39:56;;;;;;;1.00;1.00;;;;;;;;;;5068962;28;20203;-64
2022/07/05 03:42:23;;;;;;;0.85;0.85;;;;;;;;;;5068453;28;20203;-64
2022/07/05 03:44:50;;;;;;;1.00;1.00;;;;;;;;;;5066081;28;20230;-64
2022/07/05 03:47:17;;;;;;;1.10;0.88;;;;;;;;;;5067847;28;20206;-64
2022/07/05 03:49:44;;;;;;;1.00;1.00;;;;;;;;;;5068161;28;20531;-64
2022/07/05 03:52:11;;;;;;;0.90;0.90;;;;;;;;;;5068108;28;20214;-63
2022/07/05 03:54:38;;;;;;;1.60;0.88;;;;;;;;;;5067964;28;20235;-63
2022/07/05 03:57:07;;;;;;;0.90;0.90;;;;;;;;;;5068329;28;20203;-63
2022/07/05 03:59:34;;;;;;;0.88;0.88;;;;;;;;;;5069132;28;20214;-63
2022/07/05 04:02:01;;;;;;;1.10;1.10;;;;;;;;;;5067602;28;20572;-63
2022/07/05 04:04:28;;;;;;;1.55;1.08;;;;;;;;;;5068936;28;20207;-63
2022/07/05 04:06:55;;;;;;;1.10;1.00;;;;;;;;;;5064679;28;20203;-63
2022/07/05 04:09:22;;;;;;;1.77;1.02;;;;;;;;;;5067950;28;20997;-63
2022/07/05 04:11:49;;;;;;;1.10;1.08;;;;;;;;;;5068227;28;20734;-63
2022/07/05 04:14:20;;;;;;;0.98;0.98;;;;;;;;;;5068248;28;20276;-64
2022/07/05 04:16:47;;;;;;;1.35;0.98;;;;;;;;;;5067181;28;20217;-63
2022/07/05 04:19:14;;;;;;;1.10;1.10;;;;;;;;;;5068595;28;20207;-63
2022/07/05 04:21:41;;;;;;;0.88;0.88;;;;;;;;;;5066577;28;20621;-63
2022/07/05 04:24:10;;;;;;;1.13;1.13;;;;;;;;;;5067656;28;20206;-63
2022/07/05 04:26:37;;;;;;;1.10;1.10;;;;;;;;;;5068005;28;20992;-63
2022/07/05 04:29:04;;;;;;;1.02;0.93;;;;;;;;;;5067332;28;20207;-63
2022/07/05 04:31:33;;;;;;;0.80;0.80;;;;;;;;;;5068434;28;20210;-63
2022/07/05 04:34:00;;;;;;;1.17;0.90;;;;;;;;;;5066354;28;20203;-63
2022/07/05 04:36:27;;;;;;;1.13;1.00;;;;;;;;;;5067733;28;20619;-63
2022/07/05 04:38:54;;;;;;;2.35;1.20;;;;;;;;;;5067495;28;20524;-63
2022/07/05 04:41:21;;;;;;;0.93;0.93;;;;;;;;;;5067750;28;20620;-63
2022/07/05 04:43:48;;;;;;;1.00;1.00;;;;;;;;;;5067531;28;20210;-63
2022/07/05 04:46:15;;;;;;;1.10;1.10;;;;;;;;;;5062309;28;20239;-64
2022/07/05 04:48:44;;;;;;;1.00;1.00;;;;;;;;;;5067338;28;20680;-64
2022/07/05 04:51:11;;;;;;;2.10;1.00;;;;;;;;;;5067269;28;20203;-63
2022/07/05 04:53:38;;;;;;;2.72;1.08;;;;;;;;;;5067874;28;20207;-63
2022/07/05 04:56:06;;;;;;;0.68;0.68;;;;;;;;;;5067421;28;20304;-63
2022/07/05 04:58:33;;;;;;;1.00;0.88;;;;;;;;;;5067163;28;20294;-64
2022/07/05 05:01:00;;;;;;;8.38;1.00;;;;;;;;;;5063244;28;20211;-63
2022/07/05 05:03:27;;;;;;;1.00;0.90;;;;;;;;;;5066526;28;20206;-63
2022/07/05 05:06:02;;;;;;;1.27;1.02;;;;;;;;;;5067949;28;20199;-63
2022/07/05 05:08:29;;;;;;;1.85;1.23;;;;;;;;;;5069029;28;20726;-63
2022/07/05 05:10:56;;;;;;;1.17;1.17;;;;;;;;;;5067755;28;20203;-62
2022/07/05 05:13:23;;;;;;;1.02;0.88;;;;;;;;;;5068733;28;20233;-63
2022/07/05 05:15:50;;;;;;;0.80;0.80;;;;;;;;;;5067669;28;20227;-65
2022/07/05 05:18:18;;;;;;;0.80;0.80;;;;;;;;;;5068752;28;20272;-65
2022/07/05 05:20:45;;;;;;;0.95;0.82;;;;;;;;;;5080042;28;20206;-65
2022/07/05 05:23:13;;;;;;;1.02;1.02;;;;;;;;;;5071475;28;20773;-65
2022/07/05 05:25:40;;;;;;;1.13;0.60;;;;;;;;;;5068194;28;20196;-65
2022/07/05 05:28:07;;;;;;;1.08;0.90;;;;;;;;;;5068026;28;20207;-62
2022/07/05 05:30:34;;;;;;;0.80;0.80;;;;;;;;;;5068544;28;20281;-62
2022/07/05 05:33:01;;;;;;;2.05;0.90;;;;;;;;;;5068221;28;20676;-63
2022/07/05 05:35:28;;;;;;;0.88;0.73;;;;;;;;;;5067908;28;20234;-63
2022/07/05 05:37:56;;;;;;;1.20;0.70;;;;;;;;;;5067767;28;20256;-62
2022/07/05 05:40:25;;;;;;;0.70;0.70;;;;;;;;;;5067304;28;20348;-62
2022/07/05 05:42:53;;;;;;;0.57;0.57;;;;;;;;;;5067047;28;20211;-62
2022/07/05 05:45:20;;;;;;;1.05;1.05;;;;;;;;;;5067635;28;20246;-62
2022/07/05 05:47:48;;;;;;;1.15;0.80;;;;;;;;;;5067977;28;20252;-63
2022/07/05 05:50:15;;;;;;;1.17;1.17;;;;;;;;;;5068473;28;20215;-60
2022/07/05 05:52:42;;;;;;;1.25;0.90;;;;;;;;;;5067749;28;20210;-60
2022/07/05 05:55:09;;;;;;;1.08;0.90;;;;;;;;;;5067837;28;20895;-61
2022/07/05 05:57:38;;;;;;;0.70;0.70;;;;;;;;;;5067204;28;20681;-62
2022/07/05 06:00:06;;;;;;;0.60;0.60;;;;;;;;;;5058474;28;20199;-61
2022/07/05 06:02:33;;;;;;;0.70;0.70;;;;;;;;;;5065816;28;20203;-61
2022/07/05 06:05:00;;;;;;;1.13;1.00;;;;;;;;;;5068153;28;20203;-61
2022/07/05 06:07:27;;;;;;;1.60;0.88;;;;;;;;;;5067975;28;20234;-61
2022/07/05 06:09:54;;;;;;;0.75;0.75;;;;;;;;;;5075600;28;20268;-61
2022/07/05 06:12:21;;;;;;;0.80;0.80;;;;;;;;;;5066720;28;20257;-61
2022/07/05 06:14:49;;;;;;;1.05;0.68;;;;;;;;;;5067204;28;20230;-61
2022/07/05 06:17:16;;;;;;;0.70;0.70;;;;;;;;;;5067665;28;20210;-61
2022/07/05 06:19:43;;;;;;;0.73;0.73;;;;;;;;;;5066584;28;20307;-61
2022/07/05 06:22:10;;;;;;;1.98;0.90;;;;;;;;;;5067536;28;20212;-60
2022/07/05 06:24:37;;;;;;;1.48;0.82;;;;;;;;;;5065782;28;20215;-60
2022/07/05 06:27:05;;;;;;;0.73;0.73;;;;;;;;;;5067307;28;20203;-60
2022/07/05 06:29:32;;;;;;;2.45;0.68;;;;;;;;;;5067749;28;20214;-61
2022/07/05 06:32:00;;;;;;;0.70;0.70;;;;;;;;;;5067208;28;20274;-61
2022/07/05 06:34:27;;;;;;;3.30;0.80;;;;;;;;;;5067258;28;20732;-61
2022/07/05 06:36:54;;;;;;;0.77;0.77;;;;;;;;;;5067406;28;20210;-60
2022/07/05 06:39:21;;;;;;;0.70;0.70;;;;;;;;;;5067352;28;20633;-61
2022/07/05 06:41:48;;;;;;;1.08;0.80;;;;;;;;;;5067652;28;20210;-61
2022/07/05 06:44:15;;;;;;;0.80;0.80;;;;;;;;;;5067386;28;20270;-61
2022/07/05 06:46:42;;;;;;;0.75;0.75;;;;;;;;;;5067211;28;20210;-61
2022/07/05 06:49:11;;;;;;;1.25;1.00;;;;;;;;;;5067451;28;20218;-61
2022/07/05 06:51:38;;;;;;;2.42;0.90;;;;;;;;;;5067447;28;20218;-61
2022/07/05 06:54:05;;;;;;;2.25;1.00;;;;;;;;;;5067308;28;20238;-60
2022/07/05 06:56:32;;;;;;;1.63;0.80;;;;;;;;;;5067395;28;20300;-61
2022/07/05 06:58:59;;;;;;;1.95;0.80;;;;;;;;;;5066786;28;20222;-60
2022/07/05 07:01:26;;;;;;;2.92;0.82;;;;;;;;;;5069054;28;20206;-61
2022/07/05 07:03:53;;;;;;;0.93;0.93;;;;;;;;;;5087076;28;20210;-61
2022/07/05 07:06:21;;;;;;;0.98;0.98;;;;;;;;;;5080198;28;20210;-61
2022/07/05 07:11:33;;;;;;;0.77;0.77;;;;;;;;;;5090470;28;20344;-61
2022/07/05 07:14:00;;;;;;;0.77;0.77;;;;;;;;;;5090399;28;20211;-62
2022/07/05 07:16:27;;;;;;;0.65;0.65;;;;;;;;;;5070337;28;20223;-62
2022/07/05 07:18:54;;;;;;;2.60;0.90;;;;;;;;;;5069206;28;20205;-61
2022/07/05 07:21:23;;;;;;;1.90;0.90;;;;;;;;;;5069563;28;20207;-62
2022/07/05 07:23:50;;;;;;;0.98;0.90;;;;;;;;;;5069663;28;20206;-61
2022/07/05 07:26:17;;;;;;;1.63;0.90;;;;;;;;;;5069520;28;20657;-61
2022/07/05 07:28:44;;;;;;;0.90;0.90;;;;;;;;;;5069789;28;20210;-61
2022/07/05 07:31:11;;;;;;;3.25;0.80;;;;;;;;;;5069792;28;20215;-61
2022/07/05 07:33:38;;;;;;;5.05;1.00;;;;;;;;;;5069507;28;20290;-63
2022/07/05 07:36:05;;;;;;;0.80;0.80;;;;;;;;;;5069581;28;20658;-61
2022/07/05 07:38:34;;;;;;;0.93;0.93;;;;;;;;;;5069607;28;20199;-61
2022/07/05 07:41:01;;;;;;;1.02;0.95;;;;;;;;;;5069562;28;20207;-62
2022/07/05 07:43:28;;;;;;;1.45;0.90;;;;;;;;;;5069526;28;20203;-61
2022/07/05 07:45:56;;;;;;;0.98;0.98;;;;;;;;;;5070051;28;20235;-60
2022/07/05 07:48:24;;;;;;;0.80;0.80;;;;;;;;;;5069740;28;20210;-62
2022/07/05 07:50:51;;;;;;;0.90;0.90;;;;;;;;;;5070147;28;20665;-63
2022/07/05 07:53:18;;;;;;;0.90;0.90;;;;;;;;;;5069854;28;20207;-63
2022/07/05 07:55:47;;;;;;;4.60;1.65;;;;;;;;;;5069830;28;20288;-63
2022/07/05 07:58:14;;;;;;;1.02;1.00;;;;;;;;;;5069838;28;20215;-63
2022/07/05 08:00:41;;;;;;;1.30;1.10;;;;;;;;;;5067330;28;20203;-63
2022/07/05 08:03:08;;;;;;;1.85;0.82;;;;;;;;;;5069734;28;20222;-61
2022/07/05 08:05:35;;;;;;;1.20;0.90;;;;;;;;;;5069534;28;20598;-63
2022/07/05 08:08:02;;;;;;;0.77;0.77;;;;;;;;;;5069827;28;20563;-62
2022/07/05 08:10:29;;;;;;;0.73;0.73;;;;;;;;;;5069751;28;20261;-66
2022/07/05 08:12:57;;;;;;;2.47;0.82;;;;;;;;;;5069653;28;20203;-63
2022/07/05 08:15:24;;;;;;;1.98;0.68;;;;;;;;;;5069197;28;20836;-62
2022/07/05 08:23:21;;;;;;;0.93;0.63;;;;;;;;;;5069485;28;20256;-62
2022/07/05 08:25:48;;;;;;;0.50;0.50;;;;;;;;;;5069152;28;20256;-59
2022/07/05 08:28:16;;;;;;;2.85;0.60;;;;;;;;;;5069214;28;20221;-61
2022/07/05 08:30:43;;;;;;;0.88;0.88;;;;;;;;;;5069185;28;20219;-59
2022/07/05 08:33:10;;;;;;;0.60;0.60;;;;;;;;;;5069405;28;20218;-66
2022/07/05 08:35:37;;;;;;;0.77;0.63;;;;;;;;;;5068754;28;20230;-63
2022/07/05 08:38:04;;;;;;;0.60;0.60;;;;;;;;;;5068808;28;20247;-62
2022/07/05 08:40:32;;;;;;;0.50;0.50;;;;;;;;;;5067465;28;20207;-62
2022/07/05 08:43:02;;;;;;;0.60;0.60;;;;;;;;;;5068367;28;20281;-62
2022/07/05 08:45:31;;;;;;;0.63;0.63;;;;;;;;;;5068539;28;20251;-61
2022/07/05 08:48:00;;;;;;;0.80;0.70;;;;;;;;;;5068366;28;20199;-62
2022/07/05 08:50:27;;;;;;;0.70;0.70;;;;;;;;;;5068226;28;20584;-62
2022/07/05 08:52:54;;;;;;;0.80;0.80;;;;;;;;;;5066428;28;20203;-61
2022/07/05 08:55:22;;;;;;;1.38;0.73;;;;;;;;;;5068427;28;20238;-62
2022/07/05 08:57:49;;;;;;;1.00;1.00;;;;;;;;;;5068815;28;20206;-63
2022/07/05 09:00:26;;;;;;;1.20;0.60;;;;;;;;;;5068100;28;20282;-64
2022/07/05 09:02:55;;;;;;;1.75;0.70;;;;;;;;;;5072077;28;20243;-63
2022/07/05 09:05:24;;;;;;;4.88;1.00;;;;;;;;;;5079168;28;20226;-62
2022/07/05 09:07:54;;;;;;;7.10;1.10;;;;;;;;;;5067792;28;20207;-63
2022/07/05 09:10:21;;;;;;;1.67;0.68;;;;;;;;;;5066410;28;20256;-63
2022/07/05 09:13:09;;;;;;;2.72;0.68;;;;;;;;;;5068599;28;20207;-64
2022/07/05 09:15:39;;;;;;;1.25;0.52;;;;;;;;;;5065522;28;20223;-64
2022/07/05 09:18:07;;;;;;;0.60;0.60;;;;;;;;;;5068029;28;20669;-64
2022/07/05 09:20:34;;;;;;;0.95;0.57;;;;;;;;;;5080860;28;20727;-62
2022/07/05 09:23:01;;;;;;;0.60;0.60;;;;;;;;;;5088218;28;20214;-63
2022/07/05 09:25:29;;;;;;;0.60;0.60;;;;;;;;;;5083325;28;20207;-59
2022/07/05 09:27:57;;;;;;;0.40;0.40;;;;;;;;;;5067971;28;20272;-67
2022/07/05 09:30:25;;;;;;;0.40;0.40;;;;;;;;;;5068215;28;20609;-63
2022/07/05 09:33:01;;;;;;;0.50;0.50;;;;;;;;;;5086118;28;20234;-63
2022/07/05 09:35:29;;;;;;;0.70;0.70;;;;;;;;;;5071078;28;20207;-63
2022/07/05 09:37:56;;;;;;;2.65;0.73;;;;;;;;;;5072068;28;20660;-63
2022/07/05 09:40:23;;;;;;;0.63;0.63;;;;;;;;;;5073986;28;20244;-64
2022/07/05 09:42:51;;;;;;;1.45;0.70;;;;;;;;;;5068642;28;20579;-65
2022/07/05 09:45:25;;;;;;;2.33;0.80;;;;;;;;;;5069300;28;20234;-65
2022/07/05 09:47:55;;;;;;;0.50;0.50;;;;;;;;;;5070250;28;20202;-65
2022/07/05 09:50:35;;;;;;;0.60;0.60;;;;;;;;;;5069624;28;20345;-64
2022/07/05 09:53:02;;;;;;;0.55;0.55;;;;;;;;;;5067543;28;20202;-65
2022/07/05 09:55:29;;;;;;;0.50;0.50;;;;;;;;;;5067709;28;20234;-65
2022/07/05 09:57:56;;;;;;;0.50;0.50;;;;;;;;;;5067423;28;20211;-65
2022/07/05 10:00:24;;;;;;;1.05;0.73;;;;;;;;;;5067600;28;20587;-65
2022/07/05 10:02:51;;;;;;;0.40;0.40;;;;;;;;;;5067194;28;20203;-66
2022/07/05 10:05:19;;;;;;;1.05;0.60;;;;;;;;;;5067578;28;20245;-65
2022/07/05 10:07:48;;;;;;;0.73;0.60;;;;;;;;;;5067435;28;20257;-65
2022/07/05 10:10:16;;;;;;;0.50;0.50;;;;;;;;;;5067627;28;20293;-66
2022/07/05 10:12:44;;;;;;;0.50;0.50;;;;;;;;;;5067341;28;20214;-65
2022/07/05 10:15:12;;;;;;;1.20;0.65;;;;;;;;;;5067467;28;20203;-66
2022/07/05 10:17:41;;;;;;;0.40;0.40;;;;;;;;;;5066907;28;20268;-65
2022/07/05 10:20:12;;;;;;;1.33;0.88;;;;;;;;;;5067069;28;20207;-65
2022/07/05 10:22:40;;;;;;;0.40;0.40;;;;;;;;;;5079957;28;20206;-65
2022/07/05 10:25:09;;;;;;;0.60;0.60;;;;;;;;;;5071262;28;20203;-65
2022/07/05 10:27:37;;;;;;;0.60;0.60;;;;;;;;;;5047000;28;20665;-66
2022/07/05 10:30:05;;;;;;;0.55;0.55;;;;;;;;;;5061941;28;20211;-63
2022/07/05 10:32:34;;;;;;;0.65;0.65;;;;;;;;;;5067315;28;20264;-62
2022/07/05 10:35:02;;;;;;;2.35;2.22;;;;;;;;;;5067056;28;20211;-63
2022/07/05 10:37:30;;;;;;;0.65;0.65;;;;;;;;;;5067164;28;20292;-63
2022/07/05 10:39:58;;;;;;;0.50;0.50;;;;;;;;;;5067151;28;20203;-64
2022/07/05 10:42:28;;;;;;;0.50;0.50;;;;;;;;;;5066550;28;20557;-64
2022/07/05 10:44:55;;;;;;;0.57;0.57;;;;;;;;;;5068299;28;20249;-66
2022/07/05 10:47:22;;;;;;;0.65;0.65;;;;;;;;;;5069823;28;20195;-64
2022/07/05 10:50:00;;;;;;;0.50;0.50;;;;;;;;;;5070373;28;20203;-66
2022/07/05 10:52:28;;;;;;;0.50;0.47;;;;;;;;;;5050384;28;20218;-66
2022/07/05 10:55:12;;;;;;;0.40;0.40;;;;;;;;;;5069906;28;20222;-65
2022/07/05 10:57:41;;;;;;;0.38;0.38;;;;;;;;;;5069429;28;20722;-65
2022/07/05 11:00:09;;;;;;;0.50;0.50;;;;;;;;;;5067260;28;20256;-66
2022/07/05 11:02:36;;;;;;;0.47;0.47;;;;;;;;;;5070436;28;20260;-65
2022/07/05 11:05:04;;;;;;;1.10;0.55;;;;;;;;;;5070031;28;20202;-66
2022/07/05 11:07:46;;;;;;;0.40;0.40;;;;;;;;;;5090044;28;20198;-66
2022/07/05 11:10:14;;;;;;;0.63;0.63;;;;;;;;;;5051552;28;20612;-66
2022/07/05 11:12:42;;;;;;;1.08;0.60;;;;;;;;;;5071224;28;20209;-66
2022/07/05 11:15:10;;;;;;;0.82;0.50;;;;;;;;;;5077103;28;20199;-66
2022/07/05 11:17:38;;;;;;;0.50;0.50;;;;;;;;;;5069009;28;20345;-66
2022/07/05 11:20:10;;;;;;;0.50;0.50;;;;;;;;;;5069291;28;20203;-64
2022/07/05 11:22:37;;;;;;;2.70;0.90;;;;;;;;;;5070049;28;20206;-72
2022/07/05 11:25:06;;;;;;;3.85;0.68;;;;;;;;;;5069044;28;20214;-66
2022/07/05 11:27:34;;;;;;;1.65;0.70;;;;;;;;;;5068095;28;20207;-63
2022/07/05 11:30:02;;;;;;;0.57;0.57;;;;;;;;;;5070330;28;20680;-65
2022/07/05 11:32:36;;;;;;;1.25;1.10;;;;;;;;;;5061085;28;20210;-62
2022/07/05 11:35:14;;;;;;;0.70;0.70;;;;;;;;;;5062764;28;20884;-62
2022/07/05 11:37:56;;;;;;;0.60;0.60;;;;;;;;;;5066431;28;20321;-62
2022/07/05 11:40:30;;;;;;;0.70;0.70;;;;;;;;;;5070960;28;20213;-62
2022/07/05 11:42:57;;;;;;;0.60;0.60;;;;;;;;;;5048069;28;20290;-63
2022/07/05 11:45:25;;;;;;;0.70;0.70;;;;;;;;;;5069675;28;20933;-62
2022/07/05 11:47:55;;;;;;;0.60;0.60;;;;;;;;;;5067630;28;20733;-63
2022/07/05 11:50:27;;;;;;;0.60;0.60;;;;;;;;;;5067601;28;20213;-62
2022/07/05 11:53:00;;;;;;;0.93;0.65;;;;;;;;;;5068445;28;20935;-63
2022/07/05 11:55:28;;;;;;;0.68;0.68;;;;;;;;;;5067387;28;20226;-63
2022/07/05 11:57:56;;;;;;;0.50;0.50;;;;;;;;;;5067586;28;20868;-63
2022/07/05 12:00:31;;;;;;;0.50;0.50;;;;;;;;;;5068456;28;20213;-62
2022/07/05 12:02:58;;;;;;;0.95;0.80;;;;;;;;;;5068363;28;20202;-63
2022/07/05 12:05:25;;;;;;;0.60;0.60;;;;;;;;;;5067659;28;20210;-64
2022/07/05 12:07:53;;;;;;;0.70;0.70;;;;;;;;;;5067248;28;20202;-62
2022/07/05 12:13:06;;;;;;;0.50;0.50;;;;;;;;;;5043721;28;20207;-63
2022/07/05 12:15:35;;;;;;;2.53;0.73;;;;;;;;;;5061004;28;20302;-63
2022/07/05 12:18:04;;;;;;;0.60;0.60;;;;;;;;;;5066238;28;20226;-63
2022/07/05 12:20:31;;;;;;;0.70;0.70;;;;;;;;;;5066686;28;20306;-63
2022/07/05 12:22:59;;;;;;;0.70;0.70;;;;;;;;;;5066234;28;20211;-63
2022/07/05 12:25:27;;;;;;;0.85;0.68;;;;;;;;;;5066389;28;20202;-63
2022/07/05 12:27:55;;;;;;;0.70;0.70;;;;;;;;;;5066734;28;20203;-63
2022/07/05 12:30:23;;;;;;;1.00;0.80;;;;;;;;;;5066132;28;20206;-62
2022/07/05 12:32:58;;;;;;;0.63;0.63;;;;;;;;;;5066579;28;20214;-63
2022/07/05 12:35:29;;;;;;;0.70;0.70;;;;;;;;;;5065404;28;20202;-62
2022/07/05 12:37:56;;;;;;;2.58;0.70;;;;;;;;;;5066559;28;20230;-63
2022/07/05 12:40:24;;;;;;;0.70;0.70;;;;;;;;;;5066088;28;20717;-64
2022/07/05 12:43:01;;;;;;;1.42;0.75;;;;;;;;;;5065673;28;20306;-63
2022/07/05 12:45:28;;;;;;;0.93;0.90;;;;;;;;;;5065986;28;20238;-63
2022/07/05 12:47:56;;;;;;;0.90;0.90;;;;;;;;;;5066060;28;20709;-62
2022/07/05 12:50:25;;;;;;;0.77;0.77;;;;;;;;;;5066523;28;20628;-63
2022/07/05 12:52:55;;;;;;;1.58;0.88;;;;;;;;;;5066398;28;20298;-63
2022/07/05 12:58:07;;;;;;;1.70;0.75;;;;;;;;;;5066984;28;20311;-63
2022/07/05 13:00:34;;;;;;;0.65;0.65;;;;;;;;;;5067885;28;20253;-63
2022/07/05 13:03:01;;;;;;;0.80;0.80;;;;;;;;;;5066418;28;20218;-62
2022/07/05 13:05:29;;;;;;;0.70;0.70;;;;;;;;;;5066239;28;20745;-63
2022/07/05 13:07:56;;;;;;;0.63;0.63;;;;;;;;;;5065439;28;20236;-63
2022/07/05 13:10:24;;;;;;;0.52;0.52;;;;;;;;;;5065781;28;20211;-62
2022/07/05 13:12:51;;;;;;;0.60;0.60;;;;;;;;;;5073067;28;20206;-63
2022/07/05 13:15:19;;;;;;;1.20;0.70;;;;;;;;;;5086139;28;20293;-64
2022/07/05 13:17:46;;;;;;;1.60;0.70;;;;;;;;;;5079130;28;20223;-63
2022/07/05 13:20:15;;;;;;;0.80;0.80;;;;;;;;;;5066806;28;20773;-62
2022/07/05 13:22:43;;;;;;;0.80;0.80;;;;;;;;;;5066804;28;20206;-63
2022/07/05 13:25:11;;;;;;;0.70;0.70;;;;;;;;;;5066012;28;20207;-63
2022/07/05 13:27:38;;;;;;;0.70;0.70;;;;;;;;;;5066306;28;20219;-63
2022/07/05 13:30:06;;;;;;;0.63;0.63;;;;;;;;;;5065724;28;20233;-63
2022/07/05 13:32:33;;;;;;;0.50;0.50;;;;;;;;;;5065776;28;20207;-63
2022/07/05 13:35:00;;;;;;;1.58;0.63;;;;;;;;;;5073170;28;20732;-63
2022/07/05 13:37:27;;;;;;;1.00;0.70;;;;;;;;;;5068913;28;20229;-63
2022/07/05 13:39:55;;;;;;;1.30;0.60;;;;;;;;;;5065979;28;20252;-63
2022/07/05 13:42:22;;;;;;;0.57;0.57;;;;;;;;;;5065905;28;20643;-63
2022/07/05 13:44:50;;;;;;;0.60;0.60;;;;;;;;;;5065320;28;20242;-63
2022/07/05 13:47:17;;;;;;;0.50;0.50;;;;;;;;;;5066437;28;20298;-64
2022/07/05 13:49:44;;;;;;;1.23;0.80;;;;;;;;;;5066298;28;20211;-63
2022/07/05 13:52:11;;;;;;;1.45;0.50;;;;;;;;;;5065898;28;20218;-63
2022/07/05 13:54:38;;;;;;;0.40;0.40;;;;;;;;;;5065403;28;20223;-63
2022/07/05 13:57:07;;;;;;;0.50;0.50;;;;;;;;;;5065359;28;20261;-63
2022/07/05 13:59:34;;;;;;;0.65;0.65;;;;;;;;;;5065654;28;20556;-63
2022/07/05 14:02:01;;;;;;;0.60;0.57;;;;;;;;;;5065335;28;20214;-63
2022/07/05 14:04:29;;;;;;;0.80;0.80;;;;;;;;;;5065420;28;20202;-63
2022/07/05 14:06:56;;;;;;;0.52;0.52;;;;;;;;;;5065519;28;20751;-63
2022/07/05 14:09:25;;;;;;;0.68;0.68;;;;;;;;;;5065367;28;20207;-63
2022/07/05 14:11:52;;;;;;;0.60;0.60;;;;;;;;;;5065695;28;20234;-63
2022/07/05 14:14:20;;;;;;;0.55;0.55;;;;;;;;;;5065144;28;20207;-63
2022/07/05 14:16:47;;;;;;;0.68;0.68;;;;;;;;;;5065948;28;20207;-63
2022/07/05 14:19:14;;;;;;;0.68;0.68;;;;;;;;;;5067659;28;20609;-63
2022/07/05 14:21:45;;;;;;;1.60;0.50;;;;;;;;;;5069193;28;20263;-63
2022/07/05 14:24:12;;;;;;;0.40;0.40;;;;;;;;;;5069254;28;20203;-63
2022/07/05 14:26:40;;;;;;;0.70;0.70;;;;;;;;;;5069555;28;20223;-62
2022/07/05 14:29:07;;;;;;;0.75;0.60;;;;;;;;;;5069540;28;21066;-63
2022/07/05 14:31:36;;;;;;;1.42;0.80;;;;;;;;;;5069420;28;20783;-62
2022/07/05 14:34:03;;;;;;;1.00;0.60;;;;;;;;;;5073435;28;20279;-63
2022/07/05 14:36:30;;;;;;;0.73;0.73;;;;;;;;;;5063012;28;20199;-63
2022/07/05 14:38:59;;;;;;;3.53;1.30;;;;;;;;;;5067359;28;20226;-61
2022/07/05 14:41:26;;;;;;;0.82;0.82;;;;;;;;;;5067505;28;20298;-62
2022/07/05 14:43:53;;;;;;;0.80;0.80;;;;;;;;;;5068619;28;20892;-64
2022/07/05 14:46:20;;;;;;;0.80;0.80;;;;;;;;;;5068233;28;20831;-63
2022/07/05 14:48:49;;;;;;;1.45;0.80;;;;;;;;;;5068973;28;20627;-63
2022/07/05 14:51:16;;;;;;;0.70;0.70;;;;;;;;;;5068558;28;20596;-63
2022/07/05 14:53:46;;;;;;;0.70;0.70;;;;;;;;;;5068254;28;20231;-64
2022/07/05 14:56:13;;;;;;;0.80;0.80;;;;;;;;;;5069019;28;20264;-64
2022/07/05 14:58:40;;;;;;;0.98;0.50;;;;;;;;;;5068865;28;20223;-64
2022/07/05 15:01:07;;;;;;;0.68;0.68;;;;;;;;;;5068927;28;20206;-63
2022/07/05 15:03:34;;;;;;;1.45;0.50;;;;;;;;;;5069257;28;20256;-63